Time,TemperatureF,DewpointF,PressureIn,WindDirection,WindDirectionDegrees,WindSpeedMPH,WindSpeedGustMPH,Humidity,HourlyPrecipIn,Conditions,Clouds,dailyrainin,SoftwareType,DateUTC
2013-04-15 00:00:00,54.1,36.4,30.09,NNE,23,1.0,-999.0,51,0.00,,,0.00,Wunderground v.1.15,2013-04-15 04:00:00,
2013-04-15 00:05:00,54.1,36.4,30.09,NNE,23,1.0,-999.0,51,0.00,,,0.00,Wunderground v.1.15,2013-04-15 04:05:00,
2013-04-15 00:10:00,54.1,36.4,30.09,NNE,23,1.0,-999.0,51,0.00,,,0.00,Wunderground v.1.15,2013-04-15 04:10:00,
2013-04-15 00:15:00,54.1,36.4,30.09,NNE,23,1.0,-999.0,51,0.00,,,0.00,Wunderground v.1.15,2013-04-15 04:15:00,
2013-04-15 00:20:00,54.1,36.4,30.09,NNE,23,1.0,-999.0,51,0.00,,,0.00,Wunderground v.1.15,2013-04-15 04:20:00,
2013-04-15 00:25:00,54.1,36.4,30.09,NNE,23,1.0,-999.0,51,0.00,,,0.00,Wunderground v.1.15,2013-04-15 04:25:00,
2013-04-15 00:30:00,54.1,36.4,30.09,NNE,23,1.0,-999.0,51,0.00,,,0.00,Wunderground v.1.15,2013-04-15 04:30:00,
2013-04-15 00:35:00,54.1,36.4,30.09,NNE,23,1.0,-999.0,51,0.00,,,0.00,Wunderground v.1.15,2013-04-15 04:35:00,
2013-04-15 00:40:00,54.1,36.4,30.09,NNE,23,1.0,-999.0,51,0.00,,,0.00,Wunderground v.1.15,2013-04-15 04:40:00,
2013-04-15 00:45:00,53.9,37.6,30.10,NE,45,1.0,-999.0,54,0.00,,,0.00,Wunderground v.1.15,2013-04-15 04:45:00,
2013-04-15 00:50:00,53.9,37.6,30.10,NE,45,1.0,-999.0,54,0.00,,,0.00,Wunderground v.1.15,2013-04-15 04:50:00,
2013-04-15 00:55:00,53.9,37.6,30.10,NE,45,1.0,-999.0,54,0.00,,,0.00,Wunderground v.1.15,2013-04-15 04:55:00,
2013-04-15 01:00:00,53.9,37.6,30.10,NE,45,1.0,-999.0,54,0.00,,,0.00,Wunderground v.1.15,2013-04-15 05:00:00,
2013-04-15 01:05:00,53.9,37.6,30.10,NE,45,1.0,-999.0,54,0.00,,,0.00,Wunderground v.1.15,2013-04-15 05:05:00,
2013-04-15 01:10:00,53.9,37.6,30.10,NE,45,1.0,-999.0,54,0.00,,,0.00,Wunderground v.1.15,2013-04-15 05:10:00,
2013-04-15 01:15:00,53.4,37.6,30.10,ENE,68,0.0,-999.0,55,0.00,,,0.00,Wunderground v.1.15,2013-04-15 05:15:00,
2013-04-15 01:20:00,53.4,37.6,30.10,ENE,68,0.0,-999.0,55,0.00,,,0.00,Wunderground v.1.15,2013-04-15 05:20:00,
2013-04-15 01:25:00,53.4,37.6,30.10,ENE,68,0.0,-999.0,55,0.00,,,0.00,Wunderground v.1.15,2013-04-15 05:25:00,
2013-04-15 01:30:00,53.4,37.6,30.10,ENE,68,0.0,-999.0,55,0.00,,,0.00,Wunderground v.1.15,2013-04-15 05:30:00,
2013-04-15 01:35:00,53.4,37.6,30.10,ENE,68,0.0,-999.0,55,0.00,,,0.00,Wunderground v.1.15,2013-04-15 05:35:00,
2013-04-15 01:40:00,53.4,37.6,30.10,ENE,68,0.0,-999.0,55,0.00,,,0.00,Wunderground v.1.15,2013-04-15 05:40:00,
2013-04-15 01:45:00,54.3,37.5,30.11,NNW,338,3.0,-999.0,53,0.00,,,0.00,Wunderground v.1.15,2013-04-15 05:45:00,
2013-04-15 01:50:00,54.3,37.5,30.11,NNW,338,3.0,-999.0,53,0.00,,,0.00,Wunderground v.1.15,2013-04-15 05:50:00,
2013-04-15 01:55:00,54.3,37.5,30.11,NNW,338,3.0,-999.0,53,0.00,,,0.00,Wunderground v.1.15,2013-04-15 05:55:00,
2013-04-15 02:00:00,54.3,37.5,30.11,NNW,338,3.0,-999.0,53,0.00,,,0.00,Wunderground v.1.15,2013-04-15 06:00:00,
2013-04-15 02:05:00,54.3,37.5,30.11,NNW,338,3.0,-999.0,53,0.00,,,0.00,Wunderground v.1.15,2013-04-15 06:05:00,
2013-04-15 02:10:00,54.3,37.5,30.11,NNW,338,3.0,-999.0,53,0.00,,,0.00,Wunderground v.1.15,2013-04-15 06:10:00,
2013-04-15 02:15:00,54.6,38.3,30.10,NNE,23,4.0,-999.0,54,0.00,,,0.00,Wunderground v.1.15,2013-04-15 06:15:00,
2013-04-15 02:20:00,54.6,38.3,30.10,NNE,23,4.0,-999.0,54,0.00,,,0.00,Wunderground v.1.15,2013-04-15 06:20:00,
2013-04-15 02:25:00,54.6,38.3,30.10,NNE,23,4.0,-999.0,54,0.00,,,0.00,Wunderground v.1.15,2013-04-15 06:25:00,
2013-04-15 02:30:00,54.6,38.3,30.10,NNE,23,4.0,-999.0,54,0.00,,,0.00,Wunderground v.1.15,2013-04-15 06:30:00,
2013-04-15 02:35:00,54.6,38.3,30.10,NNE,23,4.0,-999.0,54,0.00,,,0.00,Wunderground v.1.15,2013-04-15 06:35:00,
2013-04-15 02:40:00,54.6,38.3,30.10,NNE,23,4.0,-999.0,54,0.00,,,0.00,Wunderground v.1.15,2013-04-15 06:40:00,
2013-04-15 02:45:00,54.9,38.1,30.08,NE,45,5.0,-999.0,53,0.00,,,0.00,Wunderground v.1.15,2013-04-15 06:45:00,
2013-04-15 02:50:00,54.9,38.1,30.08,NE,45,5.0,-999.0,53,0.00,,,0.00,Wunderground v.1.15,2013-04-15 06:50:00,
2013-04-15 02:55:00,54.9,38.1,30.08,NE,45,5.0,-999.0,53,0.00,,,0.00,Wunderground v.1.15,2013-04-15 06:55:00,
2013-04-15 03:00:00,54.9,38.1,30.08,NE,45,5.0,-999.0,53,0.00,,,0.00,Wunderground v.1.15,2013-04-15 07:00:00,
2013-04-15 03:05:00,54.9,38.1,30.08,NE,45,5.0,-999.0,53,0.00,,,0.00,Wunderground v.1.15,2013-04-15 07:05:00,
2013-04-15 03:10:00,54.9,38.1,30.08,NE,45,5.0,-999.0,53,0.00,,,0.00,Wunderground v.1.15,2013-04-15 07:10:00,
2013-04-15 03:15:00,55.1,38.3,30.08,NNW,338,6.0,-999.0,53,0.00,,,0.00,Wunderground v.1.15,2013-04-15 07:15:00,
2013-04-15 03:20:00,55.1,38.3,30.08,NNW,338,6.0,-999.0,53,0.00,,,0.00,Wunderground v.1.15,2013-04-15 07:20:00,
2013-04-15 03:25:00,55.1,38.3,30.08,NNW,338,6.0,-999.0,53,0.00,,,0.00,Wunderground v.1.15,2013-04-15 07:25:00,
2013-04-15 03:30:00,55.1,38.3,30.08,NNW,338,6.0,-999.0,53,0.00,,,0.00,Wunderground v.1.15,2013-04-15 07:30:00,
2013-04-15 03:35:00,55.1,38.3,30.08,NNW,338,6.0,-999.0,53,0.00,,,0.00,Wunderground v.1.15,2013-04-15 07:35:00,
2013-04-15 03:40:00,55.1,38.3,30.08,NNW,338,6.0,-999.0,53,0.00,,,0.00,Wunderground v.1.15,2013-04-15 07:40:00,
2013-04-15 03:45:00,55.3,38.9,30.09,NNW,338,9.0,-999.0,54,0.00,,,0.00,Wunderground v.1.15,2013-04-15 07:45:00,
2013-04-15 03:50:00,55.3,38.9,30.09,NNW,338,9.0,-999.0,54,0.00,,,0.00,Wunderground v.1.15,2013-04-15 07:50:00,
2013-04-15 03:55:00,55.3,38.9,30.09,NNW,338,9.0,-999.0,54,0.00,,,0.00,Wunderground v.1.15,2013-04-15 07:55:00,
2013-04-15 04:00:00,55.3,38.9,30.09,NNW,338,9.0,-999.0,54,0.00,,,0.00,Wunderground v.1.15,2013-04-15 08:00:00,
2013-04-15 04:05:00,55.3,38.9,30.09,NNW,338,9.0,-999.0,54,0.00,,,0.00,Wunderground v.1.15,2013-04-15 08:05:00,
2013-04-15 04:10:00,55.3,38.9,30.09,NNW,338,9.0,-999.0,54,0.00,,,0.00,Wunderground v.1.15,2013-04-15 08:10:00,
2013-04-15 04:15:00,55.3,39.9,30.10,NW,315,12.0,-999.0,56,0.00,,,0.00,Wunderground v.1.15,2013-04-15 08:15:00,
2013-04-15 04:20:00,55.3,39.9,30.10,NW,315,12.0,-999.0,56,0.00,,,0.00,Wunderground v.1.15,2013-04-15 08:20:00,
2013-04-15 04:25:00,55.3,39.9,30.10,NW,315,12.0,-999.0,56,0.00,,,0.00,Wunderground v.1.15,2013-04-15 08:25:00,
2013-04-15 04:30:00,55.3,39.9,30.10,NW,315,12.0,-999.0,56,0.00,,,0.00,Wunderground v.1.15,2013-04-15 08:30:00,
2013-04-15 04:35:00,55.3,39.9,30.10,NW,315,12.0,-999.0,56,0.00,,,0.00,Wunderground v.1.15,2013-04-15 08:35:00,
2013-04-15 04:40:00,55.3,39.9,30.10,NW,315,12.0,-999.0,56,0.00,,,0.00,Wunderground v.1.15,2013-04-15 08:40:00,
2013-04-15 04:45:00,55.1,40.6,30.10,NW,315,10.0,-999.0,58,0.00,,,0.00,Wunderground v.1.15,2013-04-15 08:45:00,
2013-04-15 04:50:00,55.1,40.6,30.10,NW,315,10.0,-999.0,58,0.00,,,0.00,Wunderground v.1.15,2013-04-15 08:50:00,
2013-04-15 04:55:00,55.1,40.6,30.10,NW,315,10.0,-999.0,58,0.00,,,0.00,Wunderground v.1.15,2013-04-15 08:55:00,
2013-04-15 05:00:00,55.1,40.6,30.10,NW,315,10.0,-999.0,58,0.00,,,0.00,Wunderground v.1.15,2013-04-15 09:00:00,
2013-04-15 05:05:00,55.1,40.6,30.10,NW,315,10.0,-999.0,58,0.00,,,0.00,Wunderground v.1.15,2013-04-15 09:05:00,
2013-04-15 05:10:00,55.1,40.6,30.10,NW,315,10.0,-999.0,58,0.00,,,0.00,Wunderground v.1.15,2013-04-15 09:10:00,
2013-04-15 05:15:00,55.2,41.1,30.11,NW,315,10.0,-999.0,59,0.00,,,0.00,Wunderground v.1.15,2013-04-15 09:15:00,
2013-04-15 05:20:00,55.2,41.1,30.11,NW,315,10.0,-999.0,59,0.00,,,0.00,Wunderground v.1.15,2013-04-15 09:20:00,
2013-04-15 05:25:00,55.2,41.1,30.11,NW,315,10.0,-999.0,59,0.00,,,0.00,Wunderground v.1.15,2013-04-15 09:25:00,
2013-04-15 05:30:00,55.2,41.1,30.11,NW,315,10.0,-999.0,59,0.00,,,0.00,Wunderground v.1.15,2013-04-15 09:30:00,
2013-04-15 05:35:00,55.2,41.1,30.11,NW,315,10.0,-999.0,59,0.00,,,0.00,Wunderground v.1.15,2013-04-15 09:35:00,
2013-04-15 05:40:00,55.2,41.1,30.11,NW,315,10.0,-999.0,59,0.00,,,0.00,Wunderground v.1.15,2013-04-15 09:40:00,
2013-04-15 05:45:00,54.4,41.6,30.11,NNW,338,7.0,-999.0,62,0.00,,,0.00,Wunderground v.1.15,2013-04-15 09:45:00,
2013-04-15 05:50:00,54.4,41.6,30.11,NNW,338,7.0,-999.0,62,0.00,,,0.00,Wunderground v.1.15,2013-04-15 09:50:00,
2013-04-15 05:55:00,54.4,41.6,30.11,NNW,338,7.0,-999.0,62,0.00,,,0.00,Wunderground v.1.15,2013-04-15 09:55:00,
2013-04-15 06:00:00,54.4,41.6,30.11,NNW,338,7.0,-999.0,62,0.00,,,0.00,Wunderground v.1.15,2013-04-15 10:00:00,
2013-04-15 06:05:00,54.4,41.6,30.11,NNW,338,7.0,-999.0,62,0.00,,,0.00,Wunderground v.1.15,2013-04-15 10:05:00,
2013-04-15 06:10:00,54.4,41.6,30.11,NNW,338,7.0,-999.0,62,0.00,,,0.00,Wunderground v.1.15,2013-04-15 10:10:00,
2013-04-15 06:15:00,54.2,41.9,30.12,NNW,338,6.0,-999.0,63,0.00,,,0.00,Wunderground v.1.15,2013-04-15 10:15:00,
2013-04-15 06:20:00,54.2,41.9,30.12,NNW,338,6.0,-999.0,63,0.00,,,0.00,Wunderground v.1.15,2013-04-15 10:20:00,
2013-04-15 06:25:00,54.2,41.9,30.12,NNW,338,6.0,-999.0,63,0.00,,,0.00,Wunderground v.1.15,2013-04-15 10:25:00,
2013-04-15 06:30:00,54.2,41.9,30.12,NNW,338,6.0,-999.0,63,0.00,,,0.00,Wunderground v.1.15,2013-04-15 10:30:00,
2013-04-15 06:35:00,54.2,41.9,30.12,NNW,338,6.0,-999.0,63,0.00,,,0.00,Wunderground v.1.15,2013-04-15 10:35:00,
2013-04-15 06:40:00,54.2,41.9,30.12,NNW,338,6.0,-999.0,63,0.00,,,0.00,Wunderground v.1.15,2013-04-15 10:40:00,
2013-04-15 06:45:00,54.2,41.9,30.14,NNW,338,9.0,-999.0,63,0.00,,,0.00,Wunderground v.1.15,2013-04-15 10:45:00,
2013-04-15 06:50:00,54.2,41.9,30.14,NNW,338,9.0,-999.0,63,0.00,,,0.00,Wunderground v.1.15,2013-04-15 10:50:00,
2013-04-15 06:55:00,54.2,41.9,30.14,NNW,338,9.0,-999.0,63,0.00,,,0.00,Wunderground v.1.15,2013-04-15 10:55:00,
2013-04-15 07:00:00,54.2,41.9,30.14,NNW,338,9.0,-999.0,63,0.00,,,0.00,Wunderground v.1.15,2013-04-15 11:00:00,
2013-04-15 07:05:00,54.2,41.9,30.14,NNW,338,9.0,-999.0,63,0.00,,,0.00,Wunderground v.1.15,2013-04-15 11:05:00,
2013-04-15 07:10:00,54.2,41.9,30.14,NNW,338,9.0,-999.0,63,0.00,,,0.00,Wunderground v.1.15,2013-04-15 11:10:00,
2013-04-15 07:15:00,54.3,42.0,30.15,NW,315,5.0,-999.0,63,0.00,,,0.00,Wunderground v.1.15,2013-04-15 11:15:00,
2013-04-15 07:20:00,54.3,42.0,30.15,NW,315,5.0,-999.0,63,0.00,,,0.00,Wunderground v.1.15,2013-04-15 11:20:00,
2013-04-15 07:25:00,54.3,42.0,30.15,NW,315,5.0,-999.0,63,0.00,,,0.00,Wunderground v.1.15,2013-04-15 11:25:00,
2013-04-15 07:30:00,54.3,42.0,30.15,NW,315,5.0,-999.0,63,0.00,,,0.00,Wunderground v.1.15,2013-04-15 11:30:00,
2013-04-15 07:35:00,54.3,42.0,30.15,NW,315,5.0,-999.0,63,0.00,,,0.00,Wunderground v.1.15,2013-04-15 11:35:00,
2013-04-15 07:40:00,54.3,42.0,30.15,NW,315,5.0,-999.0,63,0.00,,,0.00,Wunderground v.1.15,2013-04-15 11:40:00,
2013-04-15 07:45:00,54.5,41.7,30.16,NW,315,6.0,-999.0,62,0.00,,,0.00,Wunderground v.1.15,2013-04-15 11:45:00,
2013-04-15 07:50:00,54.5,41.7,30.16,NW,315,6.0,-999.0,62,0.00,,,0.00,Wunderground v.1.15,2013-04-15 11:50:00,
2013-04-15 07:55:00,54.5,41.7,30.16,NW,315,6.0,-999.0,62,0.00,,,0.00,Wunderground v.1.15,2013-04-15 11:55:00,
2013-04-15 08:00:00,54.5,41.7,30.16,NW,315,6.0,-999.0,62,0.00,,,0.00,Wunderground v.1.15,2013-04-15 12:00:00,
2013-04-15 08:05:00,54.5,41.7,30.16,NW,315,6.0,-999.0,62,0.00,,,0.00,Wunderground v.1.15,2013-04-15 12:05:00,
2013-04-15 08:10:00,54.5,41.7,30.16,NW,315,6.0,-999.0,62,0.00,,,0.00,Wunderground v.1.15,2013-04-15 12:10:00,
2013-04-15 08:15:00,54.9,42.5,30.17,NW,315,7.0,-999.0,63,0.00,,,0.00,Wunderground v.1.15,2013-04-15 12:15:00,
2013-04-15 08:20:00,54.9,42.5,30.17,NW,315,7.0,-999.0,63,0.00,,,0.00,Wunderground v.1.15,2013-04-15 12:20:00,
2013-04-15 08:25:00,54.9,42.5,30.17,NW,315,7.0,-999.0,63,0.00,,,0.00,Wunderground v.1.15,2013-04-15 12:25:00,
2013-04-15 08:30:00,54.9,42.5,30.17,NW,315,7.0,-999.0,63,0.00,,,0.00,Wunderground v.1.15,2013-04-15 12:30:00,
2013-04-15 08:35:00,54.9,42.5,30.17,NW,315,7.0,-999.0,63,0.00,,,0.00,Wunderground v.1.15,2013-04-15 12:35:00,
2013-04-15 08:40:00,54.9,42.5,30.17,NW,315,7.0,-999.0,63,0.00,,,0.00,Wunderground v.1.15,2013-04-15 12:40:00,
2013-04-15 08:45:00,55.3,42.9,30.18,NW,315,8.0,-999.0,63,0.00,,,0.00,Wunderground v.1.15,2013-04-15 12:45:00,
2013-04-15 08:50:00,55.3,42.9,30.18,NW,315,8.0,-999.0,63,0.00,,,0.00,Wunderground v.1.15,2013-04-15 12:50:00,
2013-04-15 08:55:00,55.3,42.9,30.18,NW,315,8.0,-999.0,63,0.00,,,0.00,Wunderground v.1.15,2013-04-15 12:55:00,
2013-04-15 09:00:00,55.3,42.9,30.18,NW,315,8.0,-999.0,63,0.00,,,0.00,Wunderground v.1.15,2013-04-15 13:00:00,
2013-04-15 09:08:00,55.7,43.3,30.18,NNW,348,7.0,7.0,63,0.00,,,0.00,Wunderground v.1.15,2013-04-15 13:08:00,
2013-04-15 09:10:00,55.3,42.9,30.18,NW,315,8.0,-999.0,63,0.00,,,0.00,Wunderground v.1.15,2013-04-15 13:10:00,
2013-04-15 09:13:00,56.0,43.6,30.18,NNW,339,6.0,8.0,63,0.00,,,0.00,Wunderground v.1.15,2013-04-15 13:13:00,
2013-04-15 09:15:00,56.5,44.0,30.17,NW,315,6.0,-999.0,63,0.00,,,0.00,Wunderground v.1.15,2013-04-15 13:15:00,
2013-04-15 09:19:00,56.2,43.8,30.17,NNE,25,6.0,6.0,63,0.00,,,0.00,Wunderground v.1.15,2013-04-15 13:19:00,
2013-04-15 09:20:00,56.5,44.0,30.17,NW,315,6.0,-999.0,63,0.00,,,0.00,Wunderground v.1.15,2013-04-15 13:20:00,
2013-04-15 09:24:00,56.4,44.4,30.17,NW,305,6.0,7.0,64,0.00,,,0.00,Wunderground v.1.15,2013-04-15 13:24:00,
2013-04-15 09:25:00,56.5,44.0,30.17,NW,315,6.0,-999.0,63,0.00,,,0.00,Wunderground v.1.15,2013-04-15 13:25:00,
2013-04-15 09:29:00,56.5,44.5,30.17,NNW,346,6.0,7.0,64,0.00,,,0.00,Wunderground v.1.15,2013-04-15 13:29:00,
2013-04-15 09:30:00,56.5,44.0,30.17,NW,315,6.0,-999.0,63,0.00,,,0.00,Wunderground v.1.15,2013-04-15 13:30:00,
2013-04-15 09:35:00,56.5,44.0,30.17,NW,315,6.0,-999.0,63,0.00,,,0.00,Wunderground v.1.15,2013-04-15 13:35:00,
2013-04-15 09:38:00,57.3,44.0,30.16,West,281,6.0,6.0,61,0.00,,,0.00,Wunderground v.1.15,2013-04-15 13:38:00,
2013-04-15 09:40:00,56.5,44.0,30.17,NW,315,6.0,-999.0,63,0.00,,,0.00,Wunderground v.1.15,2013-04-15 13:40:00,
2013-04-15 09:43:00,57.9,45.0,30.16,WNW,301,6.0,9.0,62,0.00,,,0.00,Wunderground v.1.15,2013-04-15 13:43:00,
2013-04-15 09:45:00,58.2,44.4,30.15,NW,315,6.0,-999.0,60,0.00,,,0.00,Wunderground v.1.15,2013-04-15 13:45:00,
2013-04-15 09:48:00,58.3,44.9,30.15,NNW,328,6.0,9.0,61,0.00,,,0.00,Wunderground v.1.15,2013-04-15 13:48:00,
2013-04-15 09:50:00,58.2,44.4,30.15,NW,315,6.0,-999.0,60,0.00,,,0.00,Wunderground v.1.15,2013-04-15 13:50:00,
2013-04-15 09:53:00,58.1,44.3,30.15,WNW,290,7.0,9.0,60,0.00,,,0.00,Wunderground v.1.15,2013-04-15 13:53:00,
2013-04-15 09:55:00,58.2,44.4,30.15,NW,315,6.0,-999.0,60,0.00,,,0.00,Wunderground v.1.15,2013-04-15 13:55:00,
2013-04-15 09:59:00,58.2,44.8,30.15,NNW,344,8.0,15.0,61,0.00,,,0.00,Wunderground v.1.15,2013-04-15 13:59:00,
2013-04-15 10:00:00,58.2,44.4,30.15,NW,315,6.0,-999.0,60,0.00,,,0.00,Wunderground v.1.15,2013-04-15 14:00:00,
2013-04-15 10:05:00,58.2,44.4,30.15,NW,315,6.0,-999.0,60,0.00,,,0.00,Wunderground v.1.15,2013-04-15 14:05:00,
2013-04-15 10:09:00,58.8,45.8,30.15,NNE,13,8.0,8.0,62,0.00,,,0.00,Wunderground v.1.15,2013-04-15 14:09:00,
2013-04-15 10:10:00,58.2,44.4,30.15,NW,315,6.0,-999.0,60,0.00,,,0.00,Wunderground v.1.15,2013-04-15 14:10:00,
2013-04-15 10:15:00,60.3,46.4,30.15,NW,315,8.0,-999.0,60,0.00,,,0.00,Wunderground v.1.15,2013-04-15 14:15:00,
2013-04-15 10:20:00,60.3,46.4,30.15,NW,315,8.0,-999.0,60,0.00,,,0.00,Wunderground v.1.15,2013-04-15 14:20:00,
2013-04-15 10:23:00,60.0,46.5,30.14,NW,317,7.0,8.0,61,0.00,,,0.00,Wunderground v.1.15,2013-04-15 14:23:00,
2013-04-15 10:25:00,60.3,46.4,30.15,NW,315,8.0,-999.0,60,0.00,,,0.00,Wunderground v.1.15,2013-04-15 14:25:00,
2013-04-15 10:29:00,60.2,46.3,30.15,North,356,9.0,10.0,60,0.00,,,0.00,Wunderground v.1.15,2013-04-15 14:29:00,
2013-04-15 10:30:00,60.3,46.4,30.15,NW,315,8.0,-999.0,60,0.00,,,0.00,Wunderground v.1.15,2013-04-15 14:30:00,
2013-04-15 10:35:00,60.3,46.4,30.15,NW,315,8.0,-999.0,60,0.00,,,0.00,Wunderground v.1.15,2013-04-15 14:35:00,
2013-04-15 10:39:00,61.1,46.7,30.15,NW,315,8.0,8.0,59,0.00,,,0.00,Wunderground v.1.15,2013-04-15 14:39:00,
2013-04-15 10:40:00,60.3,46.4,30.15,NW,315,8.0,-999.0,60,0.00,,,0.00,Wunderground v.1.15,2013-04-15 14:40:00,
2013-04-15 10:45:00,62.1,47.1,30.14,NW,315,8.0,-999.0,58,0.00,,,0.00,Wunderground v.1.15,2013-04-15 14:45:00,
2013-04-15 10:48:00,61.4,46.9,30.15,West,269,8.0,8.0,59,0.00,,,0.00,Wunderground v.1.15,2013-04-15 14:48:00,
2013-04-15 10:50:00,62.1,47.1,30.14,NW,315,8.0,-999.0,58,0.00,,,0.00,Wunderground v.1.15,2013-04-15 14:50:00,
2013-04-15 10:53:00,61.8,47.3,30.15,NW,307,8.0,8.0,59,0.00,,,0.00,Wunderground v.1.15,2013-04-15 14:53:00,
2013-04-15 10:55:00,62.1,47.1,30.14,NW,315,8.0,-999.0,58,0.00,,,0.00,Wunderground v.1.15,2013-04-15 14:55:00,
2013-04-15 10:59:00,62.2,47.2,30.15,North,354,9.0,9.0,58,0.00,,,0.00,Wunderground v.1.15,2013-04-15 14:59:00,
2013-04-15 11:00:00,62.1,47.1,30.14,NW,315,8.0,-999.0,58,0.00,,,0.00,Wunderground v.1.15,2013-04-15 15:00:00,
2013-04-15 11:05:00,62.1,47.1,30.14,NW,315,8.0,-999.0,58,0.00,,,0.00,Wunderground v.1.15,2013-04-15 15:05:00,
2013-04-15 11:08:00,62.4,47.0,30.15,NW,315,12.0,12.0,57,0.00,,,0.00,Wunderground v.1.15,2013-04-15 15:08:00,
2013-04-15 11:10:00,62.1,47.1,30.14,NW,315,8.0,-999.0,58,0.00,,,0.00,Wunderground v.1.15,2013-04-15 15:10:00,
2013-04-15 11:13:00,63.1,47.1,30.15,NW,315,12.0,12.0,56,0.00,,,0.00,Wunderground v.1.15,2013-04-15 15:13:00,
2013-04-15 11:15:00,63.5,47.0,30.15,NW,315,10.0,-999.0,55,0.00,,,0.00,Wunderground v.1.15,2013-04-15 15:15:00,
2013-04-15 11:19:00,63.6,47.6,30.15,WNW,300,9.0,9.0,56,0.00,,,0.00,Wunderground v.1.15,2013-04-15 15:19:00,
2013-04-15 11:20:00,63.5,47.0,30.15,NW,315,10.0,-999.0,55,0.00,,,0.00,Wunderground v.1.15,2013-04-15 15:20:00,
2013-04-15 11:25:00,63.5,47.0,30.15,NW,315,10.0,-999.0,55,0.00,,,0.00,Wunderground v.1.15,2013-04-15 15:25:00,
2013-04-15 11:29:00,63.5,47.0,30.15,NNW,328,9.0,12.0,55,0.00,,,0.00,Wunderground v.1.15,2013-04-15 15:29:00,
2013-04-15 11:30:00,63.5,47.0,30.15,NW,315,10.0,-999.0,55,0.00,,,0.00,Wunderground v.1.15,2013-04-15 15:30:00,
2013-04-15 11:35:00,63.5,47.0,30.15,NW,315,10.0,-999.0,55,0.00,,,0.00,Wunderground v.1.15,2013-04-15 15:35:00,
2013-04-15 11:38:00,62.5,46.6,30.14,NNW,340,8.0,8.0,56,0.00,,,0.00,Wunderground v.1.15,2013-04-15 15:38:00,
2013-04-15 11:40:00,63.5,47.0,30.15,NW,315,10.0,-999.0,55,0.00,,,0.00,Wunderground v.1.15,2013-04-15 15:40:00,
2013-04-15 11:43:00,62.4,47.0,30.14,North,354,7.0,8.0,57,0.00,,,0.00,Wunderground v.1.15,2013-04-15 15:43:00,
2013-04-15 11:45:00,62.0,47.0,30.15,NNW,338,8.0,-999.0,58,0.00,,,0.00,Wunderground v.1.15,2013-04-15 15:45:00,
2013-04-15 11:50:00,62.0,47.0,30.15,NNW,338,8.0,-999.0,58,0.00,,,0.00,Wunderground v.1.15,2013-04-15 15:50:00,
2013-04-15 11:53:00,61.9,47.0,30.14,NE,44,9.0,10.0,58,0.00,,,0.00,Wunderground v.1.15,2013-04-15 15:53:00,
2013-04-15 11:55:00,62.0,47.0,30.15,NNW,338,8.0,-999.0,58,0.00,,,0.00,Wunderground v.1.15,2013-04-15 15:55:00,
2013-04-15 11:59:00,62.1,47.1,30.15,NNW,333,9.0,9.0,58,0.00,,,0.00,Wunderground v.1.15,2013-04-15 15:59:00,
2013-04-15 12:00:00,62.0,47.0,30.15,NNW,338,8.0,-999.0,58,0.00,,,0.00,Wunderground v.1.15,2013-04-15 16:00:00,
2013-04-15 12:05:00,62.0,47.0,30.15,NNW,338,8.0,-999.0,58,0.00,,,0.00,Wunderground v.1.15,2013-04-15 16:05:00,
2013-04-15 12:08:00,62.0,47.0,30.15,North,9,8.0,10.0,58,0.00,,,0.00,Wunderground v.1.15,2013-04-15 16:08:00,
2013-04-15 12:10:00,62.0,47.0,30.15,NNW,338,8.0,-999.0,58,0.00,,,0.00,Wunderground v.1.15,2013-04-15 16:10:00,
2013-04-15 12:13:00,61.6,46.7,30.15,WNW,298,9.0,11.0,58,0.00,,,0.00,Wunderground v.1.15,2013-04-15 16:13:00,
2013-04-15 12:15:00,61.7,47.2,30.15,NW,315,8.0,-999.0,59,0.00,,,0.00,Wunderground v.1.15,2013-04-15 16:15:00,
2013-04-15 12:18:00,62.0,47.0,30.15,NNW,330,8.0,8.0,58,0.00,,,0.00,Wunderground v.1.15,2013-04-15 16:18:00,
2013-04-15 12:20:00,61.7,47.2,30.15,NW,315,8.0,-999.0,59,0.00,,,0.00,Wunderground v.1.15,2013-04-15 16:20:00,
2013-04-15 12:25:00,61.7,47.2,30.15,NW,315,8.0,-999.0,59,0.00,,,0.00,Wunderground v.1.15,2013-04-15 16:25:00,
2013-04-15 12:29:00,61.7,47.2,30.15,NNE,20,9.0,9.0,59,0.00,,,0.00,Wunderground v.1.15,2013-04-15 16:29:00,
2013-04-15 12:30:00,61.7,47.2,30.15,NW,315,8.0,-999.0,59,0.00,,,0.00,Wunderground v.1.15,2013-04-15 16:30:00,
2013-04-15 12:35:00,61.7,47.2,30.15,NW,315,8.0,-999.0,59,0.00,,,0.00,Wunderground v.1.15,2013-04-15 16:35:00,
2013-04-15 12:38:00,61.5,47.0,30.15,NNW,330,9.0,9.0,59,0.00,,,0.00,Wunderground v.1.15,2013-04-15 16:38:00,
2013-04-15 12:40:00,61.7,47.2,30.15,NW,315,8.0,-999.0,59,0.00,,,0.00,Wunderground v.1.15,2013-04-15 16:40:00,
2013-04-15 12:43:00,61.6,47.1,30.15,NW,307,8.0,9.0,59,0.00,,,0.00,Wunderground v.1.15,2013-04-15 16:43:00,
2013-04-15 12:45:00,62.4,47.4,30.14,NW,315,9.0,-999.0,58,0.00,,,0.00,Wunderground v.1.15,2013-04-15 16:45:00,
2013-04-15 12:49:00,61.7,47.2,30.14,NNW,340,9.0,12.0,59,0.00,,,0.00,Wunderground v.1.15,2013-04-15 16:49:00,
2013-04-15 12:50:00,62.4,47.4,30.14,NW,315,9.0,-999.0,58,0.00,,,0.00,Wunderground v.1.15,2013-04-15 16:50:00,
2013-04-15 12:54:00,62.2,47.7,30.14,NNW,347,10.0,12.0,59,0.00,,,0.00,Wunderground v.1.15,2013-04-15 16:54:00,
2013-04-15 12:55:00,62.4,47.4,30.14,NW,315,9.0,-999.0,58,0.00,,,0.00,Wunderground v.1.15,2013-04-15 16:55:00,
2013-04-15 12:59:00,62.4,47.0,30.14,NNE,13,9.0,9.0,57,0.00,,,0.00,Wunderground v.1.15,2013-04-15 16:59:00,
2013-04-15 13:00:00,62.4,47.4,30.14,NW,315,9.0,-999.0,58,0.00,,,0.00,Wunderground v.1.15,2013-04-15 17:00:00,
2013-04-15 13:05:00,62.4,47.4,30.14,NW,315,9.0,-999.0,58,0.00,,,0.00,Wunderground v.1.15,2013-04-15 17:05:00,
2013-04-15 13:08:00,63.0,47.5,30.14,NNW,333,8.0,16.0,57,0.00,,,0.00,Wunderground v.1.15,2013-04-15 17:08:00,
2013-04-15 13:10:00,62.4,47.4,30.14,NW,315,9.0,-999.0,58,0.00,,,0.00,Wunderground v.1.15,2013-04-15 17:10:00,
2013-04-15 13:15:00,63.5,47.0,30.14,NNW,338,9.0,-999.0,55,0.00,,,0.00,Wunderground v.1.15,2013-04-15 17:15:00,
2013-04-15 13:18:00,63.3,47.8,30.14,NNW,338,9.0,12.0,57,0.00,,,0.00,Wunderground v.1.15,2013-04-15 17:18:00,
2013-04-15 13:20:00,63.5,47.0,30.14,NNW,338,9.0,-999.0,55,0.00,,,0.00,Wunderground v.1.15,2013-04-15 17:20:00,
2013-04-15 13:24:00,63.5,47.0,30.14,North,353,8.0,12.0,55,0.00,,,0.00,Wunderground v.1.15,2013-04-15 17:24:00,
2013-04-15 13:25:00,63.5,47.0,30.14,NNW,338,9.0,-999.0,55,0.00,,,0.00,Wunderground v.1.15,2013-04-15 17:25:00,
2013-04-15 13:29:00,63.5,47.0,30.14,North,357,10.0,10.0,55,0.00,,,0.00,Wunderground v.1.15,2013-04-15 17:29:00,
2013-04-15 13:30:00,63.5,47.0,30.14,NNW,338,9.0,-999.0,55,0.00,,,0.00,Wunderground v.1.15,2013-04-15 17:30:00,
2013-04-15 13:35:00,63.5,47.0,30.14,NNW,338,9.0,-999.0,55,0.00,,,0.00,Wunderground v.1.15,2013-04-15 17:35:00,
2013-04-15 13:38:00,63.5,46.1,30.14,NNE,32,10.0,10.0,53,0.00,,,0.00,Wunderground v.1.15,2013-04-15 17:38:00,
2013-04-15 13:40:00,63.5,47.0,30.14,NNW,338,9.0,-999.0,55,0.00,,,0.00,Wunderground v.1.15,2013-04-15 17:40:00,
2013-04-15 13:43:00,63.7,47.2,30.14,NNW,345,10.0,10.0,55,0.00,,,0.00,Wunderground v.1.15,2013-04-15 17:43:00,
2013-04-15 13:45:00,63.1,46.7,30.14,NNW,338,10.0,-999.0,55,0.00,,,0.00,Wunderground v.1.15,2013-04-15 17:45:00,
2013-04-15 13:48:00,63.6,47.1,30.14,NNW,335,10.0,10.0,55,0.00,,,0.00,Wunderground v.1.15,2013-04-15 17:48:00,
2013-04-15 13:50:00,63.1,46.7,30.14,NNW,338,10.0,-999.0,55,0.00,,,0.00,Wunderground v.1.15,2013-04-15 17:50:00,
2013-04-15 13:54:00,63.4,46.9,30.14,NNE,13,11.0,11.0,55,0.00,,,0.00,Wunderground v.1.15,2013-04-15 17:54:00,
2013-04-15 13:55:00,63.1,46.7,30.14,NNW,338,10.0,-999.0,55,0.00,,,0.00,Wunderground v.1.15,2013-04-15 17:55:00,
2013-04-15 13:59:00,63.1,47.1,30.14,NNE,27,10.0,10.0,56,0.00,,,0.00,Wunderground v.1.15,2013-04-15 17:59:00,
2013-04-15 14:00:00,63.1,46.7,30.14,NNW,338,10.0,-999.0,55,0.00,,,0.00,Wunderground v.1.15,2013-04-15 18:00:00,
2013-04-15 14:05:00,63.1,46.7,30.14,NNW,338,10.0,-999.0,55,0.00,,,0.00,Wunderground v.1.15,2013-04-15 18:05:00,
2013-04-15 14:08:00,62.6,47.1,30.15,NNE,12,9.0,11.0,57,0.00,,,0.00,Wunderground v.1.15,2013-04-15 18:08:00,
2013-04-15 14:10:00,63.1,46.7,30.14,NNW,338,10.0,-999.0,55,0.00,,,0.00,Wunderground v.1.15,2013-04-15 18:10:00,
2013-04-15 14:13:00,62.5,47.1,30.15,North,353,9.0,11.0,57,0.00,,,0.00,Wunderground v.1.15,2013-04-15 18:13:00,
2013-04-15 14:15:00,61.8,48.2,30.15,NNW,338,8.0,-999.0,61,0.00,,,0.00,Wunderground v.1.15,2013-04-15 18:15:00,
2013-04-15 14:19:00,62.4,47.9,30.15,North,349,8.0,11.0,59,0.00,,,0.00,Wunderground v.1.15,2013-04-15 18:19:00,
2013-04-15 14:20:00,61.8,48.2,30.15,NNW,338,8.0,-999.0,61,0.00,,,0.00,Wunderground v.1.15,2013-04-15 18:20:00,
2013-04-15 14:25:00,61.8,48.2,30.15,NNW,338,8.0,-999.0,61,0.00,,,0.00,Wunderground v.1.15,2013-04-15 18:25:00,
2013-04-15 14:29:00,61.8,48.2,30.15,NW,319,7.0,8.0,61,0.00,,,0.00,Wunderground v.1.15,2013-04-15 18:29:00,
2013-04-15 14:30:00,61.8,48.2,30.15,NNW,338,8.0,-999.0,61,0.00,,,0.00,Wunderground v.1.15,2013-04-15 18:30:00,
2013-04-15 14:33:00,61.6,48.0,30.15,NW,307,8.0,8.0,61,0.00,,,0.00,Wunderground v.1.15,2013-04-15 18:33:00,
2013-04-15 14:35:00,61.8,48.2,30.15,NNW,338,8.0,-999.0,61,0.00,,,0.00,Wunderground v.1.15,2013-04-15 18:35:00,
2013-04-15 14:38:00,61.5,48.4,30.15,WNW,286,9.0,11.0,62,0.00,,,0.00,Wunderground v.1.15,2013-04-15 18:38:00,
2013-04-15 14:40:00,61.8,48.2,30.15,NNW,338,8.0,-999.0,61,0.00,,,0.00,Wunderground v.1.15,2013-04-15 18:40:00,
2013-04-15 14:43:00,61.6,48.4,30.15,North,10,10.0,11.0,62,0.00,,,0.00,Wunderground v.1.15,2013-04-15 18:43:00,
2013-04-15 14:45:00,61.4,48.3,30.15,NW,315,10.0,-999.0,62,0.00,,,0.00,Wunderground v.1.15,2013-04-15 18:45:00,
2013-04-15 14:48:00,61.6,48.4,30.15,North,358,10.0,10.0,62,0.00,,,0.00,Wunderground v.1.15,2013-04-15 18:48:00,
2013-04-15 14:50:00,61.4,48.3,30.15,NW,315,10.0,-999.0,62,0.00,,,0.00,Wunderground v.1.15,2013-04-15 18:50:00,
2013-04-15 14:53:00,61.5,47.9,30.15,NNW,328,11.0,12.0,61,0.00,,,0.00,Wunderground v.1.15,2013-04-15 18:53:00,
2013-04-15 14:55:00,61.4,48.3,30.15,NW,315,10.0,-999.0,62,0.00,,,0.00,Wunderground v.1.15,2013-04-15 18:55:00,
2013-04-15 14:59:00,61.5,48.4,30.15,North,11,9.0,9.0,62,0.00,,,0.00,Wunderground v.1.15,2013-04-15 18:59:00,
2013-04-15 15:00:00,61.4,48.3,30.15,NW,315,10.0,-999.0,62,0.00,,,0.00,Wunderground v.1.15,2013-04-15 19:00:00,
2013-04-15 15:05:00,61.4,48.3,30.15,NW,315,10.0,-999.0,62,0.00,,,0.00,Wunderground v.1.15,2013-04-15 19:05:00,
2013-04-15 15:08:00,61.4,47.8,30.14,NNW,342,8.0,11.0,61,0.00,,,0.00,Wunderground v.1.15,2013-04-15 19:08:00,
2013-04-15 15:10:00,61.4,48.3,30.15,NW,315,10.0,-999.0,62,0.00,,,0.00,Wunderground v.1.15,2013-04-15 19:10:00,
2013-04-15 15:13:00,61.4,46.9,30.14,NW,316,10.0,14.0,59,0.00,,,0.00,Wunderground v.1.15,2013-04-15 19:13:00,
2013-04-15 15:15:00,62.3,46.9,30.13,NNW,338,10.0,-999.0,57,0.00,,,0.00,Wunderground v.1.15,2013-04-15 19:15:00,
2013-04-15 15:18:00,61.7,46.8,30.14,North,4,12.0,17.0,58,0.00,,,0.00,Wunderground v.1.15,2013-04-15 19:18:00,
2013-04-15 15:20:00,62.3,46.9,30.13,NNW,338,10.0,-999.0,57,0.00,,,0.00,Wunderground v.1.15,2013-04-15 19:20:00,
2013-04-15 15:24:00,62.1,46.7,30.13,NW,311,12.0,18.0,57,0.00,,,0.00,Wunderground v.1.15,2013-04-15 19:24:00,
2013-04-15 15:25:00,62.3,46.9,30.13,NNW,338,10.0,-999.0,57,0.00,,,0.00,Wunderground v.1.15,2013-04-15 19:25:00,
2013-04-15 15:29:00,62.3,46.9,30.13,North,349,11.0,19.0,57,0.00,,,0.00,Wunderground v.1.15,2013-04-15 19:29:00,
2013-04-15 15:30:00,62.3,46.9,30.13,NNW,338,10.0,-999.0,57,0.00,,,0.00,Wunderground v.1.15,2013-04-15 19:30:00,
2013-04-15 15:35:00,62.3,46.9,30.13,NNW,338,10.0,-999.0,57,0.00,,,0.00,Wunderground v.1.15,2013-04-15 19:35:00,
2013-04-15 15:39:00,61.9,46.5,30.13,NNW,330,11.0,11.0,57,0.00,,,0.00,Wunderground v.1.15,2013-04-15 19:39:00,
2013-04-15 15:40:00,62.3,46.9,30.13,NNW,338,10.0,-999.0,57,0.00,,,0.00,Wunderground v.1.15,2013-04-15 19:40:00,
2013-04-15 15:44:00,62.1,47.1,30.14,NW,324,9.0,11.0,58,0.00,,,0.00,Wunderground v.1.15,2013-04-15 19:44:00,
2013-04-15 15:45:00,62.4,47.4,30.13,NNW,338,9.0,-999.0,58,0.00,,,0.00,Wunderground v.1.15,2013-04-15 19:45:00,
2013-04-15 15:50:00,62.4,47.4,30.13,NNW,338,9.0,-999.0,58,0.00,,,0.00,Wunderground v.1.15,2013-04-15 19:50:00,
2013-04-15 15:53:00,62.3,46.9,30.13,North,349,8.0,8.0,57,0.00,,,0.00,Wunderground v.1.15,2013-04-15 19:53:00,
2013-04-15 15:55:00,62.4,47.4,30.13,NNW,338,9.0,-999.0,58,0.00,,,0.00,Wunderground v.1.15,2013-04-15 19:55:00,
2013-04-15 15:59:00,62.4,47.0,30.13,WNW,297,7.0,7.0,57,0.00,,,0.00,Wunderground v.1.15,2013-04-15 19:59:00,
2013-04-15 16:00:00,62.4,47.4,30.13,NNW,338,9.0,-999.0,58,0.00,,,0.00,Wunderground v.1.15,2013-04-15 20:00:00,
2013-04-15 16:04:00,62.4,46.5,30.13,North,6,7.0,8.0,56,0.00,,,0.00,Wunderground v.1.15,2013-04-15 20:04:00,
2013-04-15 16:05:00,62.4,47.4,30.13,NNW,338,9.0,-999.0,58,0.00,,,0.00,Wunderground v.1.15,2013-04-15 20:05:00,
2013-04-15 16:09:00,62.3,46.9,30.13,North,358,7.0,7.0,57,0.00,,,0.00,Wunderground v.1.15,2013-04-15 20:09:00,
2013-04-15 16:10:00,62.4,47.4,30.13,NNW,338,9.0,-999.0,58,0.00,,,0.00,Wunderground v.1.15,2013-04-15 20:10:00,
2013-04-15 16:14:00,62.2,47.2,30.13,NNW,339,7.0,7.0,58,0.00,,,0.00,Wunderground v.1.15,2013-04-15 20:14:00,
2013-04-15 16:15:00,61.9,46.5,30.13,NNW,338,8.0,-999.0,57,0.00,,,0.00,Wunderground v.1.15,2013-04-15 20:15:00,
2013-04-15 16:18:00,62.1,47.1,30.13,NNW,336,8.0,8.0,58,0.00,,,0.00,Wunderground v.1.15,2013-04-15 20:18:00,
2013-04-15 16:20:00,61.9,46.5,30.13,NNW,338,8.0,-999.0,57,0.00,,,0.00,Wunderground v.1.15,2013-04-15 20:20:00,
2013-04-15 16:23:00,62.0,47.0,30.13,North,1,8.0,8.0,58,0.00,,,0.00,Wunderground v.1.15,2013-04-15 20:23:00,
2013-04-15 16:25:00,61.9,46.5,30.13,NNW,338,8.0,-999.0,57,0.00,,,0.00,Wunderground v.1.15,2013-04-15 20:25:00,
2013-04-15 16:28:00,61.8,46.4,30.13,North,4,8.0,10.0,57,0.00,,,0.00,Wunderground v.1.15,2013-04-15 20:28:00,
2013-04-15 16:30:00,61.9,46.5,30.13,NNW,338,8.0,-999.0,57,0.00,,,0.00,Wunderground v.1.15,2013-04-15 20:30:00,
2013-04-15 16:34:00,61.7,46.3,30.13,North,353,9.0,10.0,57,0.00,,,0.00,Wunderground v.1.15,2013-04-15 20:34:00,
2013-04-15 16:35:00,61.9,46.5,30.13,NNW,338,8.0,-999.0,57,0.00,,,0.00,Wunderground v.1.15,2013-04-15 20:35:00,
2013-04-15 16:39:00,61.6,46.2,30.13,NW,309,11.0,11.0,57,0.00,,,0.00,Wunderground v.1.15,2013-04-15 20:39:00,
2013-04-15 16:40:00,61.9,46.5,30.13,NNW,338,8.0,-999.0,57,0.00,,,0.00,Wunderground v.1.15,2013-04-15 20:40:00,
2013-04-15 16:44:00,61.6,46.2,30.13,NW,305,10.0,11.0,57,0.00,,,0.00,Wunderground v.1.15,2013-04-15 20:44:00,
2013-04-15 16:45:00,62.0,47.0,30.14,NW,315,9.0,-999.0,58,0.00,,,0.00,Wunderground v.1.15,2013-04-15 20:45:00,
2013-04-15 16:50:00,62.0,47.0,30.14,NW,315,9.0,-999.0,58,0.00,,,0.00,Wunderground v.1.15,2013-04-15 20:50:00,
2013-04-15 16:53:00,62.1,46.7,30.13,North,353,8.0,12.0,57,0.00,,,0.00,Wunderground v.1.15,2013-04-15 20:53:00,
2013-04-15 16:55:00,62.0,47.0,30.14,NW,315,9.0,-999.0,58,0.00,,,0.00,Wunderground v.1.15,2013-04-15 20:55:00,
2013-04-15 16:59:00,62.0,46.6,30.14,NW,319,9.0,9.0,57,0.00,,,0.00,Wunderground v.1.15,2013-04-15 20:59:00,
2013-04-15 17:00:00,62.0,47.0,30.14,NW,315,9.0,-999.0,58,0.00,,,0.00,Wunderground v.1.15,2013-04-15 21:00:00,
2013-04-15 17:05:00,62.0,47.0,30.14,NW,315,9.0,-999.0,58,0.00,,,0.00,Wunderground v.1.15,2013-04-15 21:05:00,
2013-04-15 17:09:00,61.5,47.0,30.14,NW,319,9.0,9.0,59,0.00,,,0.00,Wunderground v.1.15,2013-04-15 21:09:00,
2013-04-15 17:10:00,62.0,47.0,30.14,NW,315,9.0,-999.0,58,0.00,,,0.00,Wunderground v.1.15,2013-04-15 21:10:00,
2013-04-15 17:15:00,61.1,48.0,30.14,NW,315,8.0,-999.0,62,0.00,,,0.00,Wunderground v.1.15,2013-04-15 21:15:00,
2013-04-15 17:19:00,61.4,47.4,30.14,NW,314,8.0,8.0,60,0.00,,,0.00,Wunderground v.1.15,2013-04-15 21:19:00,
2013-04-15 17:20:00,61.1,48.0,30.14,NW,315,8.0,-999.0,62,0.00,,,0.00,Wunderground v.1.15,2013-04-15 21:20:00,
2013-04-15 17:24:00,61.3,47.7,30.14,WNW,299,7.0,9.0,61,0.00,,,0.00,Wunderground v.1.15,2013-04-15 21:24:00,
2013-04-15 17:25:00,61.1,48.0,30.14,NW,315,8.0,-999.0,62,0.00,,,0.00,Wunderground v.1.15,2013-04-15 21:25:00,
2013-04-15 17:29:00,61.1,48.0,30.14,NW,315,8.0,9.0,62,0.00,,,0.00,Wunderground v.1.15,2013-04-15 21:29:00,
2013-04-15 17:30:00,61.1,48.0,30.14,NW,315,8.0,-999.0,62,0.00,,,0.00,Wunderground v.1.15,2013-04-15 21:30:00,
2013-04-15 17:35:00,61.1,48.0,30.14,NW,315,8.0,-999.0,62,0.00,,,0.00,Wunderground v.1.15,2013-04-15 21:35:00,
2013-04-15 17:38:00,60.8,48.1,30.14,NW,320,9.0,12.0,63,0.00,,,0.00,Wunderground v.1.15,2013-04-15 21:38:00,
2013-04-15 17:40:00,61.1,48.0,30.14,NW,315,8.0,-999.0,62,0.00,,,0.00,Wunderground v.1.15,2013-04-15 21:40:00,
2013-04-15 17:43:00,60.7,48.0,30.13,NW,322,10.0,12.0,63,0.00,,,0.00,Wunderground v.1.15,2013-04-15 21:43:00,
2013-04-15 17:45:00,60.7,48.0,30.14,NW,315,9.0,-999.0,63,0.00,,,0.00,Wunderground v.1.15,2013-04-15 21:45:00,
2013-04-15 17:49:00,60.6,47.9,30.14,North,1,10.0,13.0,63,0.00,,,0.00,Wunderground v.1.15,2013-04-15 21:49:00,
2013-04-15 17:50:00,60.7,48.0,30.14,NW,315,9.0,-999.0,63,0.00,,,0.00,Wunderground v.1.15,2013-04-15 21:50:00,
2013-04-15 17:54:00,60.7,48.0,30.14,NW,309,9.0,13.0,63,0.00,,,0.00,Wunderground v.1.15,2013-04-15 21:54:00,
2013-04-15 17:55:00,60.7,48.0,30.14,NW,315,9.0,-999.0,63,0.00,,,0.00,Wunderground v.1.15,2013-04-15 21:55:00,
2013-04-15 17:59:00,60.7,48.0,30.14,NW,322,9.0,9.0,63,0.00,,,0.00,Wunderground v.1.15,2013-04-15 21:59:00,
2013-04-15 18:00:00,60.7,48.0,30.14,NW,315,9.0,-999.0,63,0.00,,,0.00,Wunderground v.1.15,2013-04-15 22:00:00,
2013-04-15 18:05:00,60.7,48.0,30.14,NW,315,9.0,-999.0,63,0.00,,,0.00,Wunderground v.1.15,2013-04-15 22:05:00,
2013-04-15 18:08:00,60.7,48.0,30.14,NNW,330,8.0,8.0,63,0.00,,,0.00,Wunderground v.1.15,2013-04-15 22:08:00,
2013-04-15 18:10:00,60.7,48.0,30.14,NW,315,9.0,-999.0,63,0.00,,,0.00,Wunderground v.1.15,2013-04-15 22:10:00,
2013-04-15 18:13:00,60.8,48.1,30.14,NW,312,7.0,8.0,63,0.00,,,0.00,Wunderground v.1.15,2013-04-15 22:13:00,
2013-04-15 18:15:00,60.8,48.5,30.14,NNW,338,7.0,-999.0,64,0.00,,,0.00,Wunderground v.1.15,2013-04-15 22:15:00,
2013-04-15 18:19:00,60.8,48.5,30.14,WNW,301,6.0,6.0,64,0.00,,,0.00,Wunderground v.1.15,2013-04-15 22:19:00,
2013-04-15 18:20:00,60.8,48.5,30.14,NNW,338,7.0,-999.0,64,0.00,,,0.00,Wunderground v.1.15,2013-04-15 22:20:00,
2013-04-15 18:24:00,60.8,48.5,30.14,NNW,333,6.0,6.0,64,0.00,,,0.00,Wunderground v.1.15,2013-04-15 22:24:00,
2013-04-15 18:25:00,60.8,48.5,30.14,NNW,338,7.0,-999.0,64,0.00,,,0.00,Wunderground v.1.15,2013-04-15 22:25:00,
2013-04-15 18:30:00,60.8,48.5,30.14,NNW,338,7.0,-999.0,64,0.00,,,0.00,Wunderground v.1.15,2013-04-15 22:30:00,
2013-04-15 18:33:00,60.7,48.4,30.14,NNW,335,7.0,11.0,64,0.00,,,0.00,Wunderground v.1.15,2013-04-15 22:33:00,
2013-04-15 18:35:00,60.8,48.5,30.14,NNW,338,7.0,-999.0,64,0.00,,,0.00,Wunderground v.1.15,2013-04-15 22:35:00,
2013-04-15 18:38:00,60.7,48.9,30.14,NW,304,8.0,9.0,65,0.00,,,0.00,Wunderground v.1.15,2013-04-15 22:38:00,
2013-04-15 18:40:00,60.8,48.5,30.14,NNW,338,7.0,-999.0,64,0.00,,,0.00,Wunderground v.1.15,2013-04-15 22:40:00,
2013-04-15 18:43:00,60.4,49.4,30.14,NW,315,10.0,10.0,67,0.00,,,0.00,Wunderground v.1.15,2013-04-15 22:43:00,
2013-04-15 18:45:00,59.6,49.8,30.14,NW,315,10.0,-999.0,70,0.00,,,0.00,Wunderground v.1.15,2013-04-15 22:45:00,
2013-04-15 18:48:00,60.1,49.9,30.14,WNW,293,11.0,15.0,69,0.00,,,0.00,Wunderground v.1.15,2013-04-15 22:48:00,
2013-04-15 18:50:00,59.6,49.8,30.14,NW,315,10.0,-999.0,70,0.00,,,0.00,Wunderground v.1.15,2013-04-15 22:50:00,
2013-04-15 18:53:00,59.8,50.0,30.14,NW,307,11.0,15.0,70,0.00,,,0.00,Wunderground v.1.15,2013-04-15 22:53:00,
2013-04-15 18:55:00,59.6,49.8,30.14,NW,315,10.0,-999.0,70,0.00,,,0.00,Wunderground v.1.15,2013-04-15 22:55:00,
2013-04-15 18:59:00,59.6,49.8,30.14,NNW,330,11.0,11.0,70,0.00,,,0.00,Wunderground v.1.15,2013-04-15 22:59:00,
2013-04-15 19:00:00,59.6,49.8,30.14,NW,315,10.0,-999.0,70,0.00,,,0.00,Wunderground v.1.15,2013-04-15 23:00:00,
2013-04-15 19:05:00,59.6,49.8,30.14,NW,315,10.0,-999.0,70,0.00,,,0.00,Wunderground v.1.15,2013-04-15 23:05:00,
2013-04-15 19:08:00,59.3,49.9,30.14,WNW,302,11.0,18.0,71,0.00,,,0.00,Wunderground v.1.15,2013-04-15 23:08:00,
2013-04-15 19:10:00,59.6,49.8,30.14,NW,315,10.0,-999.0,70,0.00,,,0.00,Wunderground v.1.15,2013-04-15 23:10:00,
2013-04-15 19:13:00,59.1,50.1,30.14,NW,314,12.0,18.0,72,0.00,,,0.00,Wunderground v.1.15,2013-04-15 23:13:00,
2013-04-15 19:15:00,59.0,50.0,30.15,NW,315,12.0,-999.0,72,0.00,,,0.00,Wunderground v.1.15,2013-04-15 23:15:00,
2013-04-15 19:18:00,59.0,50.0,30.14,WNW,300,13.0,13.0,72,0.00,,,0.00,Wunderground v.1.15,2013-04-15 23:18:00,
2013-04-15 19:20:00,59.0,50.0,30.15,NW,315,12.0,-999.0,72,0.00,,,0.00,Wunderground v.1.15,2013-04-15 23:20:00,
2013-04-15 19:23:00,59.0,50.0,30.14,NW,316,12.0,14.0,72,0.00,,,0.00,Wunderground v.1.15,2013-04-15 23:23:00,
2013-04-15 19:25:00,59.0,50.0,30.15,NW,315,12.0,-999.0,72,0.00,,,0.00,Wunderground v.1.15,2013-04-15 23:25:00,
2013-04-15 19:29:00,59.0,50.0,30.14,NW,318,12.0,13.0,72,0.00,,,0.00,Wunderground v.1.15,2013-04-15 23:29:00,
2013-04-15 19:30:00,59.0,50.0,30.15,NW,315,12.0,-999.0,72,0.00,,,0.00,Wunderground v.1.15,2013-04-15 23:30:00,
2013-04-15 19:35:00,59.0,50.0,30.15,NW,315,12.0,-999.0,72,0.00,,,0.00,Wunderground v.1.15,2013-04-15 23:35:00,
2013-04-15 19:38:00,58.8,49.0,30.15,NNW,344,12.0,12.0,70,0.00,,,0.00,Wunderground v.1.15,2013-04-15 23:38:00,
2013-04-15 19:40:00,59.0,50.0,30.15,NW,315,12.0,-999.0,72,0.00,,,0.00,Wunderground v.1.15,2013-04-15 23:40:00,
2013-04-15 19:45:00,58.5,48.7,30.15,NW,315,11.0,-999.0,70,0.00,,,0.00,Wunderground v.1.15,2013-04-15 23:45:00,
2013-04-15 19:48:00,58.7,49.3,30.15,NW,307,12.0,12.0,71,0.00,,,0.00,Wunderground v.1.15,2013-04-15 23:48:00,
2013-04-15 19:50:00,58.5,48.7,30.15,NW,315,11.0,-999.0,70,0.00,,,0.00,Wunderground v.1.15,2013-04-15 23:50:00,
2013-04-15 19:53:00,58.6,48.8,30.15,NW,324,11.0,12.0,70,0.00,,,0.00,Wunderground v.1.15,2013-04-15 23:53:00,
2013-04-15 19:55:00,58.5,48.7,30.15,NW,315,11.0,-999.0,70,0.00,,,0.00,Wunderground v.1.15,2013-04-15 23:55:00,
2013-04-15 19:59:00,58.5,48.7,30.15,NW,319,10.0,10.0,70,0.00,,,0.00,Wunderground v.1.15,2013-04-15 23:59:00,
2013-04-15 20:00:00,58.5,48.7,30.15,NW,315,11.0,-999.0,70,0.00,,,0.00,Wunderground v.1.15,2013-04-16 00:00:00,
2013-04-15 20:05:00,58.5,48.7,30.15,NW,315,11.0,-999.0,70,0.00,,,0.00,Wunderground v.1.15,2013-04-16 00:05:00,
2013-04-15 20:08:00,58.3,48.2,30.15,NNW,340,11.0,13.0,69,0.00,,,0.00,Wunderground v.1.15,2013-04-16 00:08:00,
2013-04-15 20:10:00,58.5,48.7,30.15,NW,315,11.0,-999.0,70,0.00,,,0.00,Wunderground v.1.15,2013-04-16 00:10:00,
2013-04-15 20:13:00,58.2,47.7,30.15,North,353,11.0,13.0,68,0.00,,,0.00,Wunderground v.1.15,2013-04-16 00:13:00,
2013-04-15 20:15:00,57.9,47.4,30.16,NW,315,11.0,-999.0,68,0.00,,,0.00,Wunderground v.1.15,2013-04-16 00:15:00,
2013-04-15 20:18:00,58.0,47.5,30.15,NNW,338,12.0,12.0,68,0.00,,,0.00,Wunderground v.1.15,2013-04-16 00:18:00,
2013-04-15 20:20:00,57.9,47.4,30.16,NW,315,11.0,-999.0,68,0.00,,,0.00,Wunderground v.1.15,2013-04-16 00:20:00,
2013-04-15 20:23:00,58.0,47.5,30.15,NNW,342,11.0,14.0,68,0.00,,,0.00,Wunderground v.1.15,2013-04-16 00:23:00,
2013-04-15 20:25:00,57.9,47.4,30.16,NW,315,11.0,-999.0,68,0.00,,,0.00,Wunderground v.1.15,2013-04-16 00:25:00,
2013-04-15 20:28:00,57.9,47.4,30.15,NNE,27,12.0,12.0,68,0.00,,,0.00,Wunderground v.1.15,2013-04-16 00:28:00,
2013-04-15 20:30:00,57.9,47.4,30.16,NW,315,11.0,-999.0,68,0.00,,,0.00,Wunderground v.1.15,2013-04-16 00:30:00,
2013-04-15 20:33:00,57.8,47.7,30.15,NNW,337,13.0,18.0,69,0.00,,,0.00,Wunderground v.1.15,2013-04-16 00:33:00,
2013-04-15 20:35:00,57.9,47.4,30.16,NW,315,11.0,-999.0,68,0.00,,,0.00,Wunderground v.1.15,2013-04-16 00:35:00,
2013-04-15 20:38:00,57.6,47.5,30.16,NNW,338,12.0,13.0,69,0.00,,,0.00,Wunderground v.1.15,2013-04-16 00:38:00,
2013-04-15 20:40:00,57.9,47.4,30.16,NW,315,11.0,-999.0,68,0.00,,,0.00,Wunderground v.1.15,2013-04-16 00:40:00,
2013-04-15 20:43:00,57.6,47.5,30.16,WNW,297,11.0,13.0,69,0.00,,,0.00,Wunderground v.1.15,2013-04-16 00:43:00,
2013-04-15 20:45:00,57.2,47.9,30.16,NW,315,11.0,-999.0,71,0.00,,,0.00,Wunderground v.1.15,2013-04-16 00:45:00,
2013-04-15 20:49:00,57.5,47.8,30.16,NNW,330,11.0,13.0,70,0.00,,,0.00,Wunderground v.1.15,2013-04-16 00:49:00,
2013-04-15 20:50:00,57.2,47.9,30.16,NW,315,11.0,-999.0,71,0.00,,,0.00,Wunderground v.1.15,2013-04-16 00:50:00,
2013-04-15 20:55:00,57.2,47.9,30.16,NW,315,11.0,-999.0,71,0.00,,,0.00,Wunderground v.1.15,2013-04-16 00:55:00,
2013-04-15 20:59:00,57.2,47.9,30.16,NNW,330,11.0,11.0,71,0.00,,,0.00,Wunderground v.1.15,2013-04-16 00:59:00,
2013-04-15 21:00:00,57.2,47.9,30.16,NW,315,11.0,-999.0,71,0.00,,,0.00,Wunderground v.1.15,2013-04-16 01:00:00,
2013-04-15 21:05:00,57.2,47.9,30.16,NW,315,11.0,-999.0,71,0.00,,,0.00,Wunderground v.1.15,2013-04-16 01:05:00,
2013-04-15 21:08:00,57.1,48.2,30.17,WNW,302,12.0,13.0,72,0.00,,,0.00,Wunderground v.1.15,2013-04-16 01:08:00,
2013-04-15 21:10:00,57.2,47.9,30.16,NW,315,11.0,-999.0,71,0.00,,,0.00,Wunderground v.1.15,2013-04-16 01:10:00,
2013-04-15 21:13:00,57.0,48.1,30.17,NW,321,13.0,17.0,72,0.00,,,0.00,Wunderground v.1.15,2013-04-16 01:13:00,
2013-04-15 21:15:00,56.8,49.0,30.17,NW,315,14.0,-999.0,75,0.00,,,0.00,Wunderground v.1.15,2013-04-16 01:15:00,
2013-04-15 21:18:00,57.0,48.4,30.17,NW,325,14.0,16.0,73,0.00,,,0.00,Wunderground v.1.15,2013-04-16 01:18:00,
2013-04-15 21:20:00,56.8,49.0,30.17,NW,315,14.0,-999.0,75,0.00,,,0.00,Wunderground v.1.15,2013-04-16 01:20:00,
2013-04-15 21:23:00,56.9,48.7,30.17,NW,321,16.0,16.0,74,0.00,,,0.00,Wunderground v.1.15,2013-04-16 01:23:00,
2013-04-15 21:25:00,56.8,49.0,30.17,NW,315,14.0,-999.0,75,0.00,,,0.00,Wunderground v.1.15,2013-04-16 01:25:00,
2013-04-15 21:28:00,56.8,49.0,30.17,NNW,335,16.0,22.0,75,0.00,,,0.00,Wunderground v.1.15,2013-04-16 01:28:00,
2013-04-15 21:30:00,56.8,49.0,30.17,NW,315,14.0,-999.0,75,0.00,,,0.00,Wunderground v.1.15,2013-04-16 01:30:00,
2013-04-15 21:34:00,56.7,48.9,30.17,NW,323,16.0,22.0,75,0.00,,,0.00,Wunderground v.1.15,2013-04-16 01:34:00,
2013-04-15 21:35:00,56.8,49.0,30.17,NW,315,14.0,-999.0,75,0.00,,,0.00,Wunderground v.1.15,2013-04-16 01:35:00,
2013-04-15 21:40:00,56.8,49.0,30.17,NW,315,14.0,-999.0,75,0.00,,,0.00,Wunderground v.1.15,2013-04-16 01:40:00,
2013-04-15 21:43:00,56.5,49.0,30.17,NW,309,15.0,16.0,76,0.00,,,0.00,Wunderground v.1.15,2013-04-16 01:43:00,
2013-04-15 21:45:00,56.3,49.2,30.18,NW,315,15.0,-999.0,77,0.00,,,0.00,Wunderground v.1.15,2013-04-16 01:45:00,
2013-04-15 21:48:00,56.4,49.3,30.17,NW,314,15.0,15.0,77,0.00,,,0.00,Wunderground v.1.15,2013-04-16 01:48:00,
2013-04-15 21:50:00,56.3,49.2,30.18,NW,315,15.0,-999.0,77,0.00,,,0.00,Wunderground v.1.15,2013-04-16 01:50:00,
2013-04-15 21:53:00,56.3,49.2,30.17,NW,322,15.0,15.0,77,0.00,,,0.00,Wunderground v.1.15,2013-04-16 01:53:00,
2013-04-15 21:55:00,56.3,49.2,30.18,NW,315,15.0,-999.0,77,0.00,,,0.00,Wunderground v.1.15,2013-04-16 01:55:00,
2013-04-15 21:59:00,56.3,49.2,30.18,WNW,293,16.0,16.0,77,0.00,,,0.00,Wunderground v.1.15,2013-04-16 01:59:00,
2013-04-15 22:00:00,56.3,49.2,30.18,NW,315,15.0,-999.0,77,0.00,,,0.00,Wunderground v.1.15,2013-04-16 02:00:00,
2013-04-15 22:05:00,56.3,49.2,30.18,NW,315,15.0,-999.0,77,0.00,,,0.00,Wunderground v.1.15,2013-04-16 02:05:00,
2013-04-15 22:08:00,56.2,49.4,30.18,NNW,335,15.0,15.0,78,0.00,,,0.00,Wunderground v.1.15,2013-04-16 02:08:00,
2013-04-15 22:10:00,56.3,49.2,30.18,NW,315,15.0,-999.0,77,0.00,,,0.00,Wunderground v.1.15,2013-04-16 02:10:00,
2013-04-15 22:15:00,55.9,49.1,30.19,NW,315,14.0,-999.0,78,0.00,,,0.00,Wunderground v.1.15,2013-04-16 02:15:00,
2013-04-15 22:18:00,56.1,49.3,30.18,NW,316,13.0,16.0,78,0.00,,,0.00,Wunderground v.1.15,2013-04-16 02:18:00,
2013-04-15 22:20:00,55.9,49.1,30.19,NW,315,14.0,-999.0,78,0.00,,,0.00,Wunderground v.1.15,2013-04-16 02:20:00,
2013-04-15 22:23:00,56.0,49.2,30.18,WNW,295,14.0,16.0,78,0.00,,,0.00,Wunderground v.1.15,2013-04-16 02:23:00,
2013-04-15 22:25:00,55.9,49.1,30.19,NW,315,14.0,-999.0,78,0.00,,,0.00,Wunderground v.1.15,2013-04-16 02:25:00,
2013-04-15 22:28:00,55.9,49.1,30.19,WNW,302,14.0,14.0,78,0.00,,,0.00,Wunderground v.1.15,2013-04-16 02:28:00,
2013-04-15 22:30:00,55.9,49.1,30.19,NW,315,14.0,-999.0,78,0.00,,,0.00,Wunderground v.1.15,2013-04-16 02:30:00,
2013-04-15 22:34:00,55.8,49.0,30.18,NNW,342,13.0,14.0,78,0.00,,,0.00,Wunderground v.1.15,2013-04-16 02:34:00,
2013-04-15 22:35:00,55.9,49.1,30.19,NW,315,14.0,-999.0,78,0.00,,,0.00,Wunderground v.1.15,2013-04-16 02:35:00,
2013-04-15 22:39:00,55.8,49.0,30.18,NW,316,13.0,15.0,78,0.00,,,0.00,Wunderground v.1.15,2013-04-16 02:39:00,
2013-04-15 22:40:00,55.9,49.1,30.19,NW,315,14.0,-999.0,78,0.00,,,0.00,Wunderground v.1.15,2013-04-16 02:40:00,
2013-04-15 22:44:00,55.8,49.4,30.19,NNW,335,13.0,15.0,79,0.00,,,0.00,Wunderground v.1.15,2013-04-16 02:44:00,
2013-04-15 22:45:00,55.7,49.3,30.19,NW,315,12.0,-999.0,79,0.00,,,0.00,Wunderground v.1.15,2013-04-16 02:45:00,
2013-04-15 22:50:00,55.7,49.3,30.19,NW,315,12.0,-999.0,79,0.00,,,0.00,Wunderground v.1.15,2013-04-16 02:50:00,
2013-04-15 22:53:00,55.7,49.3,30.19,NNE,13,13.0,13.0,79,0.00,,,0.00,Wunderground v.1.15,2013-04-16 02:53:00,
2013-04-15 22:55:00,55.7,49.3,30.19,NW,315,12.0,-999.0,79,0.00,,,0.00,Wunderground v.1.15,2013-04-16 02:55:00,
2013-04-15 22:59:00,55.7,49.3,30.19,NW,320,12.0,12.0,79,0.00,,,0.00,Wunderground v.1.15,2013-04-16 02:59:00,
2013-04-15 23:00:00,55.7,49.3,30.19,NW,315,12.0,-999.0,79,0.00,,,0.00,Wunderground v.1.15,2013-04-16 03:00:00,
2013-04-15 23:05:00,55.7,49.3,30.19,NW,315,12.0,-999.0,79,0.00,,,0.00,Wunderground v.1.15,2013-04-16 03:05:00,
2013-04-15 23:09:00,55.6,49.2,30.19,NW,325,11.0,11.0,79,0.00,,,0.00,Wunderground v.1.15,2013-04-16 03:09:00,
2013-04-15 23:10:00,55.7,49.3,30.19,NW,315,12.0,-999.0,79,0.00,,,0.00,Wunderground v.1.15,2013-04-16 03:10:00,
2013-04-15 23:15:00,55.5,49.4,30.19,NW,315,11.0,-999.0,80,0.00,,,0.00,Wunderground v.1.15,2013-04-16 03:15:00,
2013-04-15 23:18:00,55.5,49.4,30.19,NNW,329,11.0,11.0,80,0.00,,,0.00,Wunderground v.1.15,2013-04-16 03:18:00,
2013-04-15 23:20:00,55.5,49.4,30.19,NW,315,11.0,-999.0,80,0.00,,,0.00,Wunderground v.1.15,2013-04-16 03:20:00,
2013-04-15 23:23:00,55.5,49.4,30.19,NNW,333,11.0,15.0,80,0.00,,,0.00,Wunderground v.1.15,2013-04-16 03:23:00,
2013-04-15 23:25:00,55.5,49.4,30.19,NW,315,11.0,-999.0,80,0.00,,,0.00,Wunderground v.1.15,2013-04-16 03:25:00,
2013-04-15 23:28:00,55.5,49.4,30.19,NW,323,12.0,12.0,80,0.00,,,0.00,Wunderground v.1.15,2013-04-16 03:28:00,
2013-04-15 23:30:00,55.5,49.4,30.19,NW,315,11.0,-999.0,80,0.00,,,0.00,Wunderground v.1.15,2013-04-16 03:30:00,
2013-04-15 23:33:00,55.5,49.4,30.19,WNW,299,12.0,15.0,80,0.00,,,0.00,Wunderground v.1.15,2013-04-16 03:33:00,
2013-04-15 23:35:00,55.5,49.4,30.19,NW,315,11.0,-999.0,80,0.00,,,0.00,Wunderground v.1.15,2013-04-16 03:35:00,
2013-04-15 23:38:00,55.4,49.3,30.19,WNW,300,13.0,13.0,80,0.00,,,0.00,Wunderground v.1.15,2013-04-16 03:38:00,
2013-04-15 23:40:00,55.5,49.4,30.19,NW,315,11.0,-999.0,80,0.00,,,0.00,Wunderground v.1.15,2013-04-16 03:40:00,
2013-04-15 23:44:00,55.4,49.3,30.19,NW,305,13.0,15.0,80,0.00,,,0.00,Wunderground v.1.15,2013-04-16 03:44:00,
2013-04-15 23:45:00,55.4,49.7,30.18,NW,315,13.0,-999.0,81,0.00,,,0.00,Wunderground v.1.15,2013-04-16 03:45:00,
2013-04-15 23:49:00,55.4,49.7,30.19,NW,311,12.0,12.0,81,0.00,,,0.00,Wunderground v.1.15,2013-04-16 03:49:00,
2013-04-15 23:50:00,55.4,49.7,30.18,NW,315,13.0,-999.0,81,0.00,,,0.00,Wunderground v.1.15,2013-04-16 03:50:00,
2013-04-15 23:54:00,55.4,49.7,30.19,NNW,339,12.0,14.0,81,0.00,,,0.00,Wunderground v.1.15,2013-04-16 03:54:00,
2013-04-15 23:55:00,55.4,49.7,30.18,NW,315,13.0,-999.0,81,0.00,,,0.00,Wunderground v.1.15,2013-04-16 03:55:00,
2013-04-15 23:59:00,55.4,49.7,30.18,NNE,16,12.0,15.0,81,0.00,,,0.00,Wunderground v.1.15,2013-04-16 03:59:00,